Flight Track Log - Related Links

Times and Time Zones

All times are in EDT time to prevent confusion due to time zone crossing. See the CTL13 flight status page for this flight to view local times or setup timezone preferences in your user account.

Time Position Orientation Groundspeed Altitude Reporting Facility
EDT Latitude Longitude Course Direction KTS MPH feet Rate Location/Type
Fri 11:25:58 PM 41.8000 -87.7167 90° East 123 142 1,600  Level Chicago TRACON
Fri 11:26:59 PM 41.8000 -87.6667 90° East 132 152 2,500 803 Climbing Chicago TRACON
Fri 11:28:05 PM 41.8000 -87.6167 90° East 135 155 3,300 750 Climbing Chicago TRACON
Fri 11:28:59 PM 41.8167 -87.5667 66° East 139 160 4,000 738 Climbing Chicago TRACON
Fri 11:30:15 PM 41.8219 -87.5119 83° East 137 158 4,900 394 Climbing Chicago Center
Fri 11:31:16 PM 41.8286 -87.4581 81° East 143 165 4,900  Level Chicago Center
Fri 11:32:17 PM 41.8333 -87.4008 84° East 156 180 4,900  Level Chicago Center
Fri 11:33:18 PM 41.8631 -87.3506 52° Northeast 169 194 4,900  Level Chicago Center
Fri 11:34:19 PM 41.8894 -87.3006 55° Northeast 166 191 4,900  Level Chicago Center
Fri 11:35:20 PM 41.9189 -87.2536 50° Northeast 165 190 4,900  Level Chicago Center
Fri 11:36:21 PM 41.9489 -87.1975 54° Northeast 167 192 4,900 49 Level Chicago Center
Fri 11:37:22 PM 41.9739 -87.1550 52° Northeast 165 190 5,000  Climbing Chicago Center
Fri 11:38:23 PM 42.0089 -87.0958 51° Northeast 169 194 4,900 -49 Descending Chicago Center
Fri 11:39:24 PM 42.0378 -87.0461 52° Northeast 170 196 4,900  Level Chicago Center
Fri 11:40:25 PM 42.0656 -87.0003 51° Northeast 171 197 4,900  Level Chicago Center
Fri 11:41:26 PM 42.0919 -86.9486 55° Northeast 168 193 4,900  Level Chicago Center
Fri 11:42:27 PM 42.1200 -86.8981 53° Northeast 169 194 4,900  Level Chicago Center
Fri 11:43:28 PM 42.1478 -86.8472 54° Northeast 168 193 4,900  Level Chicago Center
Fri 11:44:29 PM 42.1772 -86.7958 52° Northeast 172 198 4,900  Level Chicago Center
Fri 11:45:30 PM 42.2056 -86.7464 52° Northeast 168 193 4,900  Level Chicago Center
Fri 11:46:31 PM 42.2356 -86.6961 51° Northeast 171 197 4,900  Level Chicago Center
Fri 11:47:32 PM 42.2694 -86.6353 53° Northeast 171 197 4,900  Level Chicago Center
Fri 11:48:33 PM 42.2997 -86.5850 51° Northeast 171 197 4,900  Level Chicago Center
Fri 11:49:34 PM 42.3278 -86.5392 50° Northeast 169 194 4,900  Level Chicago Center
Fri 11:50:35 PM 42.3567 -86.4878 53° Northeast 171 197 4,900  Level Chicago Center
Fri 11:51:36 PM 42.3853 -86.4361 53° Northeast 172 198 4,900  Level Chicago Center
Fri 11:52:37 PM 42.4142 -86.3881 51° Northeast 168 193 4,900  Level Chicago Center
Fri 11:53:38 PM 42.4436 -86.3367 52° Northeast 171 197 4,900  Level Chicago Center
Fri 11:54:39 PM 42.4722 -86.2847 53° Northeast 172 198 4,900  Level Chicago Center
Fri 11:55:40 PM 42.5064 -86.2239 53° Northeast 171 197 4,900  Level Chicago Center
Fri 11:56:41 PM 42.5356 -86.1742 51° Northeast 169 194 4,900  Level Chicago Center
Fri 11:57:42 PM 42.5642 -86.1231 53° Northeast 171 197 4,900  Level Chicago Center
Fri 11:58:43 PM 42.6114 -86.1025 18° North 189 217 4,900 -295 Level Chicago Center
Fri 11:59:44 PM 42.6664 -86.0972 North 197 227 4,300 -492 Descending Chicago Center
Sat 12:00:45 AM 42.7231 -86.0903 North 204 235 3,900 -98 Descending Chicago Center
Sat 12:01:46 AM 42.7778 -86.0856 North 200 230 4,100  Climbing Chicago Center
Sat 12:02:47 AM 42.8211 -86.0642 20° North 192 221 3,900 -49 Descending Chicago Center
Sat 12:03:48 AM 42.8269 -86.0053 82° East 162 186 4,000 49 Climbing Chicago Center
Sat 12:04:49 AM 42.8325 -85.9469 83° East 158 182 4,000 49 Level Chicago Center
Sat 12:05:50 AM 42.8369 -85.8908 84° East 153 176 4,100 49 Climbing Chicago Center
Sat 12:06:51 AM 42.8422 -85.8242 84° East 149 171 4,100  Level Chicago Center
Sat 12:07:52 AM 42.8461 -85.7689 85° East 149 171 4,100  Level Chicago Center
Sat 12:08:53 AM 42.8522 -85.7167 81° East 143 165 4,100  Level Chicago Center
Sat 12:09:54 AM 42.8592 -85.6664 79° East 138 159 4,100  Level Chicago Center
Sat 12:10:54 AM 42.9011 -85.6564 10° North 162 186 4,100 -50 Level Chicago Center
Sat 12:11:55 AM 42.9436 -85.6586 358° North 165 190 4,000 -98 Descending Chicago Center
Sat 12:13:00 AM 42.9005 -85.6086 140° Southeast  Level FlightAware Approximate
Sat 12:20:00 AM 42.8808 -85.5228 56° Northeast  Level Estimated
Sat 12:21:00 AM 42.8808 -85.5228 56° Northeast  Level Estimated
Sat 12:22:00 AM 42.8808 -85.5228 56° Northeast  Level Estimated

Login

Don't have an account? Register now (free) for customized features, flight alerts, and more!